createdAt,value
2019-01-27T00:00:18.961Z,874.08
2019-01-27T00:01:18.937Z,874.03
2019-01-27T00:02:18.919Z,874.00
2019-01-27T00:03:18.897Z,873.98
2019-01-27T00:04:18.970Z,873.94
2019-01-27T00:05:18.863Z,873.95
2019-01-27T00:06:18.838Z,873.91
2019-01-27T00:07:18.814Z,873.87
2019-01-27T00:08:18.798Z,873.87
2019-01-27T00:09:18.776Z,873.82
2019-01-27T00:10:18.758Z,873.83
2019-01-27T00:11:18.740Z,873.80
2019-01-27T00:12:18.714Z,873.81
2019-01-27T00:13:18.700Z,873.77
2019-01-27T00:14:18.676Z,873.75
2019-01-27T00:15:18.657Z,873.77
2019-01-27T00:16:18.643Z,873.73
2019-01-27T00:17:18.619Z,873.70
2019-01-27T00:18:18.599Z,873.69
2019-01-27T00:19:18.582Z,873.66
2019-01-27T00:20:18.564Z,873.66
2019-01-27T00:21:18.542Z,873.65
2019-01-27T00:22:18.516Z,873.62
2019-01-27T00:23:18.494Z,873.60
2019-01-27T00:24:18.476Z,873.55
2019-01-27T00:25:18.460Z,873.53
2019-01-27T00:26:18.438Z,873.56
2019-01-27T00:27:18.417Z,873.53
2019-01-27T00:28:18.406Z,873.53
2019-01-27T00:29:18.382Z,873.55
2019-01-27T00:30:18.361Z,873.52
2019-01-27T00:31:18.338Z,873.54
2019-01-27T00:32:18.320Z,873.53
2019-01-27T00:33:18.301Z,873.51
2019-01-27T00:34:18.282Z,873.53
2019-01-27T00:35:18.257Z,873.53
2019-01-27T00:36:18.242Z,873.51
2019-01-27T00:37:18.225Z,873.53
2019-01-27T00:38:18.200Z,873.49
2019-01-27T00:39:18.184Z,873.48
2019-01-27T00:40:18.171Z,873.45
2019-01-27T00:41:18.140Z,873.44
2019-01-27T00:42:18.120Z,873.40
2019-01-27T00:43:18.104Z,873.43
2019-01-27T00:44:18.082Z,873.37
2019-01-27T00:45:18.065Z,873.40
2019-01-27T00:46:18.040Z,873.37
2019-01-27T00:47:18.026Z,873.36
2019-01-27T00:48:18.008Z,873.33
2019-01-27T00:49:17.986Z,873.31
2019-01-27T00:50:17.968Z,873.30
2019-01-27T00:51:17.941Z,873.29
2019-01-27T00:52:17.919Z,873.27
2019-01-27T00:53:17.909Z,873.21
2019-01-27T00:54:17.882Z,873.20
2019-01-27T00:55:17.867Z,873.18
2019-01-27T00:56:17.848Z,873.13
2019-01-27T00:57:17.828Z,873.11
2019-01-27T00:58:17.808Z,873.10
2019-01-27T00:59:17.784Z,873.06
2019-01-27T01:00:17.764Z,873.05
2019-01-27T01:01:17.744Z,872.99
2019-01-27T01:02:17.727Z,872.96
2019-01-27T01:03:17.702Z,872.94
2019-01-27T01:04:17.683Z,872.93
2019-01-27T01:05:17.665Z,872.94
2019-01-27T01:06:17.644Z,872.86
2019-01-27T01:07:17.627Z,872.87
2019-01-27T01:08:17.602Z,872.84
2019-01-27T01:09:17.590Z,872.85
2019-01-27T01:10:17.564Z,872.80
2019-01-27T01:11:17.548Z,872.83
2019-01-27T01:12:17.522Z,872.85
2019-01-27T01:13:17.504Z,872.85
2019-01-27T01:14:17.494Z,872.82
2019-01-27T01:15:17.464Z,872.81
2019-01-27T01:16:17.442Z,872.76
2019-01-27T01:17:17.426Z,872.77
2019-01-27T01:18:17.405Z,872.75
2019-01-27T01:19:17.390Z,872.74
2019-01-27T01:20:17.365Z,872.78
2019-01-27T01:21:17.344Z,872.76
2019-01-27T01:22:17.333Z,872.72
2019-01-27T01:23:17.302Z,872.75
2019-01-27T01:24:17.288Z,872.76
2019-01-27T01:25:17.267Z,872.73
2019-01-27T01:26:17.242Z,872.71
2019-01-27T01:27:17.218Z,872.74
2019-01-27T01:28:17.205Z,872.71
2019-01-27T01:29:17.183Z,872.78
2019-01-27T01:30:17.159Z,872.76
2019-01-27T01:31:17.146Z,872.69
2019-01-27T01:32:17.123Z,872.68
2019-01-27T01:33:17.103Z,872.67
2019-01-27T01:34:17.083Z,872.63
2019-01-27T01:35:17.073Z,872.60
2019-01-27T01:36:17.045Z,872.59
2019-01-27T01:37:17.024Z,872.54
2019-01-27T01:38:17.004Z,872.50
2019-01-27T01:39:16.989Z,872.47
2019-01-27T01:40:16.962Z,872.44
2019-01-27T01:41:16.946Z,872.46
2019-01-27T01:42:16.924Z,872.43
2019-01-27T01:43:16.900Z,872.46
2019-01-27T01:44:16.880Z,872.34
2019-01-27T01:45:16.865Z,872.27
2019-01-27T01:46:16.837Z,872.21
2019-01-27T01:47:16.818Z,872.18
2019-01-27T01:48:16.803Z,872.14
2019-01-27T01:49:16.786Z,872.09
2019-01-27T01:50:16.765Z,872.08
2019-01-27T01:51:16.743Z,872.03
2019-01-27T01:52:16.723Z,872.01
2019-01-27T01:53:16.698Z,871.97
2019-01-27T01:54:16.683Z,871.94
2019-01-27T01:55:16.693Z,871.89
2019-01-27T01:56:16.643Z,871.89
2019-01-27T01:57:16.619Z,871.87
2019-01-27T01:58:16.597Z,871.89
2019-01-27T01:59:16.578Z,871.80
2019-01-27T02:00:16.565Z,871.79
2019-01-27T02:01:16.540Z,871.69
2019-01-27T02:02:16.520Z,871.68
2019-01-27T02:03:16.498Z,871.59
2019-01-27T02:04:16.480Z,871.56
2019-01-27T02:05:16.454Z,871.56
2019-01-27T02:06:16.434Z,871.53
2019-01-27T02:07:16.427Z,871.46
2019-01-27T02:08:16.393Z,871.44
2019-01-27T02:09:16.378Z,871.38
2019-01-27T02:10:16.360Z,871.28
2019-01-27T02:11:16.335Z,871.26
2019-01-27T02:12:16.317Z,871.19
2019-01-27T02:13:16.298Z,871.20
2019-01-27T02:14:16.281Z,871.13
2019-01-27T02:15:16.264Z,871.12
2019-01-27T02:16:16.245Z,871.14
2019-01-27T02:17:16.229Z,871.15
2019-01-27T02:18:16.220Z,871.06
2019-01-27T02:19:16.182Z,871.07
2019-01-27T02:20:16.166Z,871.07
2019-01-27T02:21:16.140Z,871.06
2019-01-27T02:22:16.118Z,871.04
2019-01-27T02:23:16.095Z,871.02
2019-01-27T02:24:16.075Z,871.03
2019-01-27T02:25:16.061Z,871.03
2019-01-27T02:26:16.041Z,870.99
2019-01-27T02:27:16.024Z,871.04
2019-01-27T02:28:15.998Z,871.05
2019-01-27T02:29:15.986Z,871.02
2019-01-27T02:30:15.957Z,871.01
2019-01-27T02:31:15.943Z,871.01
2019-01-27T02:32:15.921Z,870.99
2019-01-27T02:33:15.902Z,870.99
2019-01-27T02:34:15.878Z,870.96
2019-01-27T02:35:15.855Z,870.97
2019-01-27T02:36:15.837Z,870.92
2019-01-27T02:37:15.819Z,870.90
2019-01-27T02:38:15.807Z,870.92
2019-01-27T02:39:15.786Z,870.90
2019-01-27T02:40:15.758Z,870.86
2019-01-27T02:41:15.738Z,870.85
2019-01-27T02:42:15.722Z,870.87
2019-01-27T02:43:15.702Z,870.89
2019-01-27T02:44:15.684Z,870.88
2019-01-27T02:45:15.666Z,870.94
2019-01-27T02:46:15.641Z,870.97
2019-01-27T02:47:15.623Z,870.95
2019-01-27T02:48:15.601Z,870.96
2019-01-27T02:49:15.582Z,870.98
2019-01-27T02:50:15.561Z,870.96
2019-01-27T02:51:15.537Z,870.91
2019-01-27T02:52:15.523Z,870.91
2019-01-27T02:53:15.502Z,870.89
2019-01-27T02:54:15.484Z,870.88
2019-01-27T02:55:15.460Z,870.88
2019-01-27T02:56:15.446Z,870.91
2019-01-27T02:57:15.427Z,870.90
2019-01-27T02:58:15.406Z,870.88
2019-01-27T02:59:15.388Z,870.91
2019-01-27T03:00:15.364Z,870.92
2019-01-27T03:01:15.345Z,870.90
2019-01-27T03:02:15.325Z,870.88
2019-01-27T03:03:15.306Z,870.88
2019-01-27T03:04:15.289Z,870.86
2019-01-27T03:05:15.266Z,870.85
2019-01-27T03:06:15.246Z,870.85
2019-01-27T03:07:15.225Z,870.85
2019-01-27T03:08:15.203Z,870.83
2019-01-27T03:09:15.185Z,870.82
2019-01-27T03:10:15.164Z,870.84
2019-01-27T03:11:15.147Z,870.82
2019-01-27T03:12:15.119Z,870.73
2019-01-27T03:13:15.103Z,870.74
2019-01-27T03:14:15.083Z,870.70
2019-01-27T03:15:15.063Z,870.68
2019-01-27T03:16:15.047Z,870.68
2019-01-27T03:17:15.025Z,870.70
2019-01-27T03:18:15.004Z,870.72
2019-01-27T03:19:14.984Z,870.72
2019-01-27T03:20:14.958Z,870.73
2019-01-27T03:21:14.946Z,870.69
2019-01-27T03:22:14.918Z,870.70
2019-01-27T03:23:14.904Z,870.67
2019-01-27T03:24:14.885Z,870.67
2019-01-27T03:25:14.862Z,870.65
2019-01-27T03:26:14.843Z,870.66
2019-01-27T03:27:14.817Z,870.69
2019-01-27T03:28:14.806Z,870.70
2019-01-27T03:29:14.779Z,870.71
2019-01-27T03:30:14.764Z,870.72
2019-01-27T03:31:14.751Z,870.74
2019-01-27T03:32:14.723Z,870.72
2019-01-27T03:33:14.702Z,870.72
2019-01-27T03:34:14.681Z,870.74
2019-01-27T03:35:14.658Z,870.71
2019-01-27T03:36:14.637Z,870.68
2019-01-27T03:37:14.613Z,870.67
2019-01-27T03:38:14.598Z,870.66
2019-01-27T03:39:14.583Z,870.66
2019-01-27T03:40:14.560Z,870.65
2019-01-27T03:41:14.541Z,870.65
2019-01-27T03:42:14.522Z,870.63
2019-01-27T03:43:14.499Z,870.65
2019-01-27T03:44:14.486Z,870.62
2019-01-27T03:45:14.458Z,870.57
2019-01-27T03:46:14.439Z,870.56
2019-01-27T03:47:14.417Z,870.53
2019-01-27T03:48:14.398Z,870.56
2019-01-27T03:49:14.380Z,870.59
2019-01-27T03:50:14.360Z,870.56
2019-01-27T03:51:14.339Z,870.51
2019-01-27T03:52:14.318Z,870.41
2019-01-27T03:53:14.314Z,870.40
2019-01-27T03:54:14.275Z,870.39
2019-01-27T03:55:14.270Z,870.36
2019-01-27T03:56:14.237Z,870.34
2019-01-27T03:57:14.220Z,870.38
2019-01-27T03:58:14.195Z,870.39
2019-01-27T03:59:14.182Z,870.39
2019-01-27T04:00:14.154Z,870.42
2019-01-27T04:01:14.138Z,870.38
2019-01-27T04:02:14.119Z,870.32
2019-01-27T04:03:14.101Z,870.36
2019-01-27T04:04:14.110Z,870.36
2019-01-27T04:05:14.056Z,870.37
2019-01-27T04:06:14.036Z,870.35
2019-01-27T04:07:14.019Z,870.39
2019-01-27T04:08:14.002Z,870.33
2019-01-27T04:09:13.971Z,870.34
2019-01-27T04:10:13.963Z,870.31
2019-01-27T04:11:13.930Z,870.34
2019-01-27T04:12:13.916Z,870.35
2019-01-27T04:13:13.891Z,870.33
2019-01-27T04:14:13.882Z,870.37
2019-01-27T04:15:13.855Z,870.38
2019-01-27T04:16:13.831Z,870.34
2019-01-27T04:17:13.813Z,870.36
2019-01-27T04:18:13.824Z,870.33
2019-01-27T04:19:13.777Z,870.32
2019-01-27T04:20:13.753Z,870.32
2019-01-27T04:21:13.737Z,870.30
2019-01-27T04:22:13.709Z,870.25
2019-01-27T04:23:13.701Z,870.27
2019-01-27T04:24:13.685Z,870.24
2019-01-27T04:25:13.668Z,870.21
2019-01-27T04:26:13.628Z,870.18
2019-01-27T04:27:13.613Z,870.13
2019-01-27T04:28:13.598Z,870.03
2019-01-27T04:29:13.579Z,869.97
2019-01-27T04:30:13.548Z,869.89
2019-01-27T04:31:13.530Z,869.83
2019-01-27T04:32:13.507Z,869.82
2019-01-27T04:33:13.489Z,869.76
2019-01-27T04:34:13.476Z,869.81
2019-01-27T04:35:13.449Z,869.86
2019-01-27T04:36:13.428Z,869.84
2019-01-27T04:37:13.408Z,869.85
2019-01-27T04:38:13.395Z,869.84
2019-01-27T04:39:13.366Z,869.82
2019-01-27T04:40:13.347Z,869.79
2019-01-27T04:41:13.326Z,869.79
2019-01-27T04:42:13.299Z,869.82
2019-01-27T04:43:13.289Z,869.81
2019-01-27T04:44:13.280Z,869.80
2019-01-27T04:45:13.259Z,869.84
2019-01-27T04:46:13.224Z,869.85
2019-01-27T04:47:13.201Z,869.84
2019-01-27T04:48:13.184Z,869.73
2019-01-27T04:49:13.161Z,869.68
2019-01-27T04:50:13.143Z,869.72
2019-01-27T04:51:13.131Z,869.72
2019-01-27T04:52:13.100Z,869.68
2019-01-27T04:53:13.077Z,869.66
2019-01-27T04:54:13.057Z,869.64
2019-01-27T04:55:13.040Z,869.58
2019-01-27T04:56:13.018Z,869.56
2019-01-27T04:57:12.998Z,869.54
2019-01-27T04:58:12.976Z,869.49
2019-01-27T04:59:12.958Z,869.46
2019-01-27T05:00:12.940Z,869.47
2019-01-27T05:01:12.914Z,869.41
2019-01-27T05:02:12.894Z,869.35
2019-01-27T05:03:12.873Z,869.31
2019-01-27T05:04:12.849Z,869.32
2019-01-27T05:05:12.832Z,869.28
2019-01-27T05:06:12.827Z,869.23
2019-01-27T05:07:12.788Z,869.19
2019-01-27T05:08:12.780Z,869.20
2019-01-27T05:09:12.757Z,869.18
2019-01-27T05:10:12.728Z,869.21
2019-01-27T05:11:12.705Z,869.16
2019-01-27T05:12:12.685Z,869.17
2019-01-27T05:13:12.668Z,869.20
2019-01-27T05:14:12.645Z,869.23
2019-01-27T05:15:12.625Z,869.21
2019-01-27T05:16:12.607Z,869.25
2019-01-27T05:17:12.581Z,869.23
2019-01-27T05:18:12.566Z,869.23
2019-01-27T05:19:12.544Z,869.20
2019-01-27T05:20:12.521Z,869.21
2019-01-27T05:21:12.498Z,869.21
2019-01-27T05:22:12.484Z,869.20
2019-01-27T05:23:12.460Z,869.20
2019-01-27T05:24:12.444Z,869.22
2019-01-27T05:25:12.418Z,869.19
2019-01-27T05:26:12.394Z,869.20
2019-01-27T05:27:12.376Z,869.18
2019-01-27T05:28:12.353Z,869.21
2019-01-27T05:29:12.332Z,869.20
2019-01-27T05:30:12.332Z,869.18
2019-01-27T05:31:12.297Z,869.14
2019-01-27T05:32:12.281Z,869.13
2019-01-27T05:33:12.254Z,869.13
2019-01-27T05:34:12.231Z,869.11
2019-01-27T05:35:12.216Z,869.15
2019-01-27T05:36:12.190Z,869.11
2019-01-27T05:37:12.174Z,869.09
2019-01-27T05:38:12.148Z,869.16
2019-01-27T05:39:12.127Z,869.18
2019-01-27T05:40:12.108Z,869.15
2019-01-27T05:41:12.088Z,869.10
2019-01-27T05:42:12.063Z,869.09
2019-01-27T05:43:12.051Z,869.10
2019-01-27T05:44:12.022Z,869.05
2019-01-27T05:45:12.007Z,869.05
2019-01-27T05:46:11.985Z,869.05
2019-01-27T05:47:11.959Z,869.05
2019-01-27T05:48:11.936Z,869.06
2019-01-27T05:49:11.922Z,869.02
2019-01-27T05:50:11.898Z,869.05
2019-01-27T05:51:11.877Z,869.06
2019-01-27T05:52:11.857Z,869.06
2019-01-27T05:53:11.837Z,869.01
2019-01-27T05:54:11.819Z,869.03
2019-01-27T05:55:11.795Z,868.99
2019-01-27T05:56:11.784Z,868.97
2019-01-27T05:57:11.753Z,868.93
2019-01-27T05:58:11.738Z,868.93
2019-01-27T05:59:11.719Z,868.89
2019-01-27T06:00:11.694Z,868.85
2019-01-27T06:01:11.674Z,868.90
2019-01-27T06:02:11.650Z,868.93
2019-01-27T06:03:11.628Z,869.00
2019-01-27T06:04:11.608Z,868.90
2019-01-27T06:05:11.586Z,868.90
2019-01-27T06:06:11.567Z,868.87
2019-01-27T06:07:11.549Z,868.83
2019-01-27T06:08:11.523Z,868.78
2019-01-27T06:09:11.501Z,868.75
2019-01-27T06:10:11.489Z,868.74
2019-01-27T06:11:11.472Z,868.73
2019-01-27T06:12:11.444Z,868.75
2019-01-27T06:13:11.427Z,868.73
2019-01-27T06:14:11.402Z,868.66
2019-01-27T06:15:11.379Z,868.64
2019-01-27T06:16:11.359Z,868.61
2019-01-27T06:17:11.341Z,868.65
2019-01-27T06:18:11.321Z,868.63
2019-01-27T06:19:11.298Z,868.63
2019-01-27T06:20:11.326Z,868.59
2019-01-27T06:21:11.265Z,868.53
2019-01-27T06:22:11.233Z,868.51
2019-01-27T06:23:11.238Z,868.51
2019-01-27T06:24:11.193Z,868.53
2019-01-27T06:25:11.172Z,868.56
2019-01-27T06:26:11.154Z,868.55
2019-01-27T06:27:11.134Z,868.57
2019-01-27T06:28:11.110Z,868.65
2019-01-27T06:29:11.082Z,868.61
2019-01-27T06:30:11.070Z,868.64
2019-01-27T06:31:11.049Z,868.64
2019-01-27T06:32:11.031Z,868.64
2019-01-27T06:33:11.009Z,868.71
2019-01-27T06:34:10.983Z,868.72
2019-01-27T06:35:10.965Z,868.79
2019-01-27T06:36:10.937Z,868.77
2019-01-27T06:37:10.922Z,868.76
2019-01-27T06:38:10.901Z,868.82
2019-01-27T06:39:10.883Z,868.81
2019-01-27T06:40:10.860Z,868.83
2019-01-27T06:41:10.838Z,868.84
2019-01-27T06:42:10.816Z,868.82
2019-01-27T06:43:10.800Z,868.84
2019-01-27T06:44:10.772Z,868.84
2019-01-27T06:45:10.759Z,868.88
2019-01-27T06:46:10.735Z,868.83
2019-01-27T06:47:10.728Z,868.86
2019-01-27T06:48:10.692Z,868.86
2019-01-27T06:49:10.670Z,868.85
2019-01-27T06:50:10.651Z,868.81
2019-01-27T06:51:10.626Z,868.81
2019-01-27T06:52:10.615Z,868.77
2019-01-27T06:53:10.584Z,868.71
2019-01-27T06:54:10.564Z,868.74
2019-01-27T06:55:10.553Z,868.71
2019-01-27T06:56:10.523Z,868.76
2019-01-27T06:57:10.505Z,868.81
2019-01-27T06:58:10.480Z,868.77
2019-01-27T06:59:10.465Z,868.78
2019-01-27T07:00:10.439Z,868.76
2019-01-27T07:01:10.419Z,868.80
2019-01-27T07:02:10.397Z,868.79
2019-01-27T07:03:10.380Z,868.83
2019-01-27T07:04:10.358Z,868.82
2019-01-27T07:05:10.338Z,868.75
2019-01-27T07:06:10.312Z,868.71
2019-01-27T07:07:10.299Z,868.69
2019-01-27T07:08:10.303Z,868.71
2019-01-27T07:09:10.254Z,868.69
2019-01-27T07:10:10.230Z,868.65
2019-01-27T07:11:10.201Z,868.68
2019-01-27T07:12:10.189Z,868.65
2019-01-27T07:13:10.169Z,868.64
2019-01-27T07:14:10.147Z,868.59
2019-01-27T07:15:10.126Z,868.58
2019-01-27T07:16:10.103Z,868.62
2019-01-27T07:17:10.084Z,868.59
2019-01-27T07:18:10.066Z,868.52
2019-01-27T07:19:10.073Z,868.49
2019-01-27T07:20:10.040Z,868.49
2019-01-27T07:21:10.014Z,868.45
2019-01-27T07:22:09.979Z,868.41
2019-01-27T07:23:10.015Z,868.38
2019-01-27T07:24:09.933Z,868.35
2019-01-27T07:25:09.946Z,868.32
2019-01-27T07:26:09.890Z,868.35
2019-01-27T07:27:09.875Z,868.32
2019-01-27T07:28:09.850Z,868.28
2019-01-27T07:29:09.848Z,868.26
2019-01-27T07:30:09.806Z,868.22
2019-01-27T07:31:09.788Z,868.21
2019-01-27T07:32:09.775Z,868.16
2019-01-27T07:33:09.752Z,868.15
2019-01-27T07:34:09.732Z,868.12
2019-01-27T07:35:09.730Z,868.16
2019-01-27T07:36:09.711Z,868.14
2019-01-27T07:37:09.666Z,868.16
2019-01-27T07:38:09.656Z,868.17
2019-01-27T07:39:09.617Z,868.18
2019-01-27T07:40:09.616Z,868.20
2019-01-27T07:41:09.579Z,868.15
2019-01-27T07:42:09.557Z,868.11
2019-01-27T07:43:09.542Z,868.10
2019-01-27T07:44:09.516Z,868.05
2019-01-27T07:45:09.498Z,868.01
2019-01-27T07:46:09.494Z,867.97
2019-01-27T07:47:09.473Z,867.92
2019-01-27T07:48:09.435Z,867.89
2019-01-27T07:49:09.416Z,867.91
2019-01-27T07:50:09.407Z,867.93
2019-01-27T07:51:09.370Z,867.92
2019-01-27T07:52:09.348Z,867.95
2019-01-27T07:53:09.336Z,867.97
2019-01-27T07:54:09.304Z,867.94
2019-01-27T07:55:09.291Z,867.90
2019-01-27T07:56:09.278Z,867.86
2019-01-27T07:57:09.248Z,867.84
2019-01-27T07:58:09.236Z,867.82
2019-01-27T07:59:09.205Z,867.80
2019-01-27T08:00:09.181Z,867.78
2019-01-27T08:01:09.159Z,867.78
2019-01-27T08:02:09.141Z,867.75
2019-01-27T08:03:12.166Z,867.78
2019-01-27T08:04:09.098Z,867.78
2019-01-27T08:05:09.083Z,867.72
2019-01-27T08:06:09.059Z,867.74
2019-01-27T08:07:09.038Z,867.67
2019-01-27T08:08:09.020Z,867.67
2019-01-27T08:09:08.998Z,867.63
2019-01-27T08:10:08.974Z,867.63
2019-01-27T08:11:08.956Z,867.64
2019-01-27T08:12:08.940Z,867.66
2019-01-27T08:13:08.916Z,867.61
2019-01-27T08:14:08.896Z,867.62
2019-01-27T08:15:08.873Z,867.64
2019-01-27T08:16:08.853Z,867.69
2019-01-27T08:17:08.831Z,867.65
2019-01-27T08:18:08.823Z,867.64
2019-01-27T08:19:08.792Z,867.64
2019-01-27T08:20:08.776Z,867.65
2019-01-27T08:21:08.750Z,867.62
2019-01-27T08:22:08.728Z,867.64
2019-01-27T08:23:08.713Z,867.69
2019-01-27T08:24:08.688Z,867.64
2019-01-27T08:25:08.685Z,867.66
2019-01-27T08:26:08.651Z,867.61
2019-01-27T08:27:08.633Z,867.59
2019-01-27T08:28:08.611Z,867.56
2019-01-27T08:29:08.581Z,867.63
2019-01-27T08:30:08.569Z,867.67
2019-01-27T08:31:08.550Z,867.68
2019-01-27T08:32:08.528Z,867.65
2019-01-27T08:33:08.506Z,867.62
2019-01-27T08:34:08.482Z,867.62
2019-01-27T08:35:08.463Z,867.64
2019-01-27T08:36:08.448Z,867.65
2019-01-27T08:37:08.426Z,867.69
2019-01-27T08:38:08.409Z,867.72
2019-01-27T08:39:08.379Z,867.73
2019-01-27T08:40:08.367Z,867.72
2019-01-27T08:41:08.351Z,867.67
2019-01-27T08:42:08.323Z,867.70
2019-01-27T08:43:08.306Z,867.78
2019-01-27T08:44:08.290Z,867.81
2019-01-27T08:45:08.260Z,867.80
2019-01-27T08:46:08.246Z,867.84
2019-01-27T08:47:08.223Z,867.81
2019-01-27T08:48:08.206Z,867.83
2019-01-27T08:49:08.187Z,867.84
2019-01-27T08:50:08.169Z,867.85
2019-01-27T08:51:08.159Z,867.86
2019-01-27T08:52:08.126Z,867.84
2019-01-27T08:53:08.106Z,867.84
2019-01-27T08:54:08.090Z,867.88
2019-01-27T08:55:08.071Z,867.91
2019-01-27T08:56:08.052Z,867.92
2019-01-27T08:57:08.027Z,867.89
2019-01-27T08:58:08.012Z,867.91
2019-01-27T08:59:07.993Z,867.90
2019-01-27T09:00:07.974Z,867.90
2019-01-27T09:01:07.955Z,867.89
2019-01-27T09:02:07.936Z,867.88
2019-01-27T09:03:07.914Z,867.83
2019-01-27T09:04:07.903Z,867.84
2019-01-27T09:05:07.879Z,867.82
2019-01-27T09:06:07.860Z,867.78
2019-01-27T09:07:07.838Z,867.77
2019-01-27T09:08:07.826Z,867.72
2019-01-27T09:09:07.809Z,867.76
2019-01-27T09:10:07.788Z,867.76
2019-01-27T09:11:07.769Z,867.71
2019-01-27T09:12:07.751Z,867.68
2019-01-27T09:13:11.296Z,867.71
2019-01-27T09:14:07.711Z,867.71
2019-01-27T09:15:07.695Z,867.69
2019-01-27T09:16:07.677Z,867.70
2019-01-27T09:17:07.657Z,867.68
2019-01-27T09:18:07.634Z,867.68
2019-01-27T09:19:07.626Z,867.67
2019-01-27T09:20:07.605Z,867.63
2019-01-27T09:21:07.586Z,867.67
2019-01-27T09:22:07.572Z,867.68
2019-01-27T09:23:07.550Z,867.67
2019-01-27T09:24:07.536Z,867.63
2019-01-27T09:25:07.516Z,867.66
2019-01-27T09:26:07.496Z,867.62
2019-01-27T09:27:07.477Z,867.63
2019-01-27T09:28:07.466Z,867.64
2019-01-27T09:29:07.444Z,867.57
2019-01-27T09:30:07.426Z,867.57
2019-01-27T09:31:07.407Z,867.63
2019-01-27T09:32:07.393Z,867.62
2019-01-27T09:33:07.368Z,867.64
2019-01-27T09:34:13.159Z,867.58
2019-01-27T09:35:07.342Z,867.61
2019-01-27T09:36:07.324Z,867.57
2019-01-27T09:37:07.306Z,867.55
2019-01-27T09:38:07.290Z,867.58
2019-01-27T09:39:07.270Z,867.57
2019-01-27T09:40:07.267Z,867.59
2019-01-27T09:41:07.239Z,867.54
2019-01-27T09:42:07.224Z,867.59
2019-01-27T09:43:07.207Z,867.53
2019-01-27T09:44:07.191Z,867.50
2019-01-27T09:45:07.169Z,867.52
2019-01-27T09:46:11.436Z,867.47
2019-01-27T09:47:07.153Z,867.46
2019-01-27T09:48:07.125Z,867.43
2019-01-27T09:49:07.109Z,867.40
2019-01-27T09:50:07.089Z,867.41
2019-01-27T09:51:07.077Z,867.34
2019-01-27T09:52:07.056Z,867.34
2019-01-27T09:53:07.044Z,867.36
2019-01-27T09:54:07.024Z,867.39
2019-01-27T09:55:07.009Z,867.38
2019-01-27T09:56:06.996Z,867.36
2019-01-27T09:57:06.981Z,867.36
2019-01-27T09:58:06.959Z,867.32
2019-01-27T09:59:06.946Z,867.31
2019-01-27T10:00:06.928Z,867.26
2019-01-27T10:01:06.911Z,867.24
2019-01-27T10:02:06.898Z,867.23
2019-01-27T10:03:06.888Z,867.18
2019-01-27T10:04:06.863Z,867.18
2019-01-27T10:05:06.850Z,867.18
2019-01-27T10:06:06.831Z,867.16
2019-01-27T10:07:06.811Z,867.19
2019-01-27T10:08:06.805Z,867.19
2019-01-27T10:09:06.782Z,867.22
2019-01-27T10:10:06.767Z,867.24
2019-01-27T10:11:06.754Z,867.23
2019-01-27T10:12:06.736Z,867.17
2019-01-27T10:13:06.721Z,867.16
2019-01-27T10:14:06.698Z,867.18
2019-01-27T10:15:06.685Z,867.16
2019-01-27T10:16:06.667Z,867.12
2019-01-27T10:17:06.653Z,867.10
2019-01-27T10:18:06.635Z,867.08
2019-01-27T10:19:06.623Z,867.02
2019-01-27T10:20:06.607Z,866.99
2019-01-27T10:21:06.585Z,866.96
2019-01-27T10:22:06.573Z,866.94
2019-01-27T10:23:06.556Z,866.96
2019-01-27T10:24:06.540Z,866.91
2019-01-27T10:25:06.532Z,866.93
2019-01-27T10:26:06.510Z,866.93
2019-01-27T10:27:06.499Z,866.94
2019-01-27T10:28:06.477Z,866.88
2019-01-27T10:29:06.463Z,866.80
2019-01-27T10:30:06.444Z,866.76
2019-01-27T10:31:06.435Z,866.70
2019-01-27T10:32:06.417Z,866.66
2019-01-27T10:33:06.401Z,866.64
2019-01-27T10:34:06.382Z,866.62
2019-01-27T10:35:06.367Z,866.57
2019-01-27T10:36:06.349Z,866.50
2019-01-27T10:37:12.078Z,866.47
2019-01-27T10:38:06.333Z,866.48
2019-01-27T10:39:06.301Z,866.44
2019-01-27T10:40:09.135Z,866.55
2019-01-27T10:41:06.273Z,866.59
2019-01-27T10:42:06.256Z,866.57
2019-01-27T10:43:06.239Z,866.61
2019-01-27T10:44:06.231Z,866.56
2019-01-27T10:45:06.214Z,866.53
2019-01-27T10:46:06.193Z,866.50
2019-01-27T10:47:06.183Z,866.47
2019-01-27T10:48:06.164Z,866.35
2019-01-27T10:49:06.156Z,866.38
2019-01-27T10:50:06.142Z,866.41
2019-01-27T10:51:06.118Z,866.34
2019-01-27T10:52:06.103Z,866.29
2019-01-27T10:53:06.092Z,866.29
2019-01-27T10:54:06.077Z,866.25
2019-01-27T10:55:06.057Z,866.15
2019-01-27T10:56:06.049Z,866.04
2019-01-27T10:57:06.029Z,866.10
2019-01-27T10:58:06.019Z,865.92
2019-01-27T10:59:06.006Z,865.94
2019-01-27T11:00:06.003Z,865.81
2019-01-27T11:01:05.978Z,865.78
2019-01-27T11:02:05.966Z,865.75
2019-01-27T11:03:05.945Z,865.76
2019-01-27T11:04:05.935Z,865.79
2019-01-27T11:05:05.919Z,865.85
2019-01-27T11:06:05.909Z,865.72
2019-01-27T11:07:05.895Z,865.66
2019-01-27T11:08:05.949Z,865.62
2019-01-27T11:09:05.871Z,865.66
2019-01-27T11:10:05.851Z,865.67
2019-01-27T11:11:05.841Z,865.71
2019-01-27T11:12:05.824Z,865.69
2019-01-27T11:13:05.817Z,865.73
2019-01-27T11:14:05.796Z,865.74
2019-01-27T11:15:05.782Z,865.68
2019-01-27T11:16:05.764Z,865.62
2019-01-27T11:17:05.756Z,865.62
2019-01-27T11:18:05.736Z,865.63
2019-01-27T11:19:05.725Z,865.60
2019-01-27T11:20:05.707Z,865.67
2019-01-27T11:21:05.697Z,865.74
2019-01-27T11:22:05.705Z,865.66
2019-01-27T11:23:05.671Z,865.65
2019-01-27T11:24:05.651Z,865.64
2019-01-27T11:25:05.637Z,865.62
2019-01-27T11:26:05.624Z,865.66
2019-01-27T11:27:05.614Z,865.62
2019-01-27T11:28:05.595Z,865.63
2019-01-27T11:29:05.586Z,865.64
2019-01-27T11:30:05.566Z,865.63
2019-01-27T11:31:05.551Z,865.59
2019-01-27T11:32:05.539Z,865.58
2019-01-27T11:33:05.527Z,865.58
2019-01-27T11:34:05.503Z,865.60
2019-01-27T11:35:05.499Z,865.58
2019-01-27T11:36:05.480Z,865.61
2019-01-27T11:37:05.465Z,865.55
2019-01-27T11:38:05.454Z,865.53
2019-01-27T11:39:05.440Z,865.55
2019-01-27T11:40:05.424Z,865.51
2019-01-27T11:41:05.408Z,865.48
2019-01-27T11:42:05.394Z,865.45
2019-01-27T11:43:05.383Z,865.46
2019-01-27T11:44:05.366Z,865.46
2019-01-27T11:45:05.354Z,865.50
2019-01-27T11:46:05.337Z,865.47
2019-01-27T11:47:05.325Z,865.44
2019-01-27T11:48:05.309Z,865.46
2019-01-27T11:49:05.298Z,865.44
2019-01-27T11:50:05.281Z,865.42
2019-01-27T11:51:05.268Z,865.41
2019-01-27T11:52:05.256Z,865.48
2019-01-27T11:53:05.240Z,865.42
2019-01-27T11:54:05.238Z,865.40
2019-01-27T11:55:05.216Z,865.37
2019-01-27T11:56:05.213Z,865.34
2019-01-27T11:57:05.187Z,865.34
2019-01-27T11:58:05.171Z,865.29
2019-01-27T11:59:05.159Z,865.29
2019-01-27T12:00:05.149Z,865.30
2019-01-27T12:01:05.133Z,865.29
2019-01-27T12:02:05.115Z,865.27
2019-01-27T12:03:05.104Z,865.25
2019-01-27T12:04:05.100Z,865.19
2019-01-27T12:05:05.076Z,865.18
2019-01-27T12:06:05.067Z,865.22
2019-01-27T12:07:05.045Z,865.15
2019-01-27T12:08:05.037Z,865.06
2019-01-27T12:10:01.425Z,865.12
2019-01-27T12:11:01.363Z,865.03
2019-01-27T12:12:58.442Z,864.90
2019-01-27T12:13:58.414Z,864.94
2019-01-27T12:15:53.285Z,864.88
2019-01-27T12:16:53.241Z,864.88
2019-01-27T12:18:48.102Z,864.83
2019-01-27T12:19:48.078Z,864.81
2019-01-27T12:21:43.470Z,864.81
2019-01-27T12:22:43.407Z,864.78
2019-01-27T12:24:39.114Z,864.84
2019-01-27T12:25:39.085Z,864.81
2019-01-27T12:27:33.962Z,864.83
2019-01-27T12:28:33.921Z,864.80
2019-01-27T12:30:28.815Z,864.79
2019-01-27T12:31:28.773Z,864.85
2019-01-27T12:33:46.302Z,864.72
2019-01-27T12:34:46.266Z,864.72
2019-01-27T12:36:41.129Z,864.64
2019-01-27T12:37:41.104Z,864.68